Allentown, Arizona
Current Conditions -  °F | °C
As of 2:53 AM on Friday 31 Oct 2014 (Local Time) from KRQE Reporting Station
Clear Clear  
Wind Chill: 34°   Ceiling: Unl
Heat Index: 34°   Visibility: 10mi
Dew Point: 14°   Wind: 0mph
Humidity: 44%   Direction: NA
Pressure: 30.33"   Gusts: NA
Location:  35.2918°N, 109.157°W
Report Text: KRQE 310853Z AUTO 00000KT 10SM CLR 01/M10 A3033 RMK AO2 SLP198 T00111100 53002 TSNO
Loading
Personal Weather Stations






























Interactive Weather Map
Tropical Storm Tracking
New forecast layout! Learn more

10-Day Weather Forecast

Advertisements
Track Severe Weather on mobile